sensor_id;sensor_type;location;lat;lon;timestamp;P1;durP1;ratioP1;P2;durP2;ratioP2
819;SDS011;392;48.838;2.322;2022-09-09T00:01:20;2.70;;;2.07;;
819;SDS011;392;48.838;2.322;2022-09-09T00:03:57;2.80;;;2.00;;
819;SDS011;392;48.838;2.322;2022-09-09T00:06:30;4.03;;;2.10;;
819;SDS011;392;48.838;2.322;2022-09-09T00:09:01;4.27;;;2.07;;
819;SDS011;392;48.838;2.322;2022-09-09T00:11:39;2.70;;;2.23;;
819;SDS011;392;48.838;2.322;2022-09-09T00:14:16;3.03;;;2.20;;
819;SDS011;392;48.838;2.322;2022-09-09T00:16:52;3.27;;;2.30;;
819;SDS011;392;48.838;2.322;2022-09-09T00:19:23;3.37;;;2.07;;
819;SDS011;392;48.838;2.322;2022-09-09T00:22:00;3.50;;;2.00;;
819;SDS011;392;48.838;2.322;2022-09-09T00:24:45;3.33;;;2.30;;
819;SDS011;392;48.838;2.322;2022-09-09T00:27:21;2.23;;;2.03;;
819;SDS011;392;48.838;2.322;2022-09-09T00:29:57;2.60;;;2.20;;
819;SDS011;392;48.838;2.322;2022-09-09T00:32:39;3.13;;;2.10;;
819;SDS011;392;48.838;2.322;2022-09-09T00:35:12;2.30;;;2.07;;
819;SDS011;392;48.838;2.322;2022-09-09T00:37:44;2.43;;;2.10;;
819;SDS011;392;48.838;2.322;2022-09-09T00:40:17;3.50;;;2.00;;
819;SDS011;392;48.838;2.322;2022-09-09T00:42:54;2.90;;;1.60;;
819;SDS011;392;48.838;2.322;2022-09-09T00:46:00;3.13;;;2.03;;
819;SDS011;392;48.838;2.322;2022-09-09T00:49:00;2.60;;;2.20;;
819;SDS011;392;48.838;2.322;2022-09-09T00:51:44;2.13;;;1.93;;
819;SDS011;392;48.838;2.322;2022-09-09T00:54:24;2.43;;;2.00;;
819;SDS011;392;48.838;2.322;2022-09-09T00:57:05;2.20;;;2.00;;
819;SDS011;392;48.838;2.322;2022-09-09T00:59:46;4.10;;;2.10;;
819;SDS011;392;48.838;2.322;2022-09-09T01:02:21;2.30;;;2.03;;
819;SDS011;392;48.838;2.322;2022-09-09T01:04:54;3.03;;;1.90;;
819;SDS011;392;48.838;2.322;2022-09-09T01:07:31;2.43;;;2.10;;
819;SDS011;392;48.838;2.322;2022-09-09T01:10:00;2.50;;;1.80;;
819;SDS011;392;48.838;2.322;2022-09-09T01:12:34;3.27;;;2.77;;
819;SDS011;392;48.838;2.322;2022-09-09T01:15:14;2.70;;;2.17;;
819;SDS011;392;48.838;2.322;2022-09-09T01:17:52;3.57;;;2.43;;
819;SDS011;392;48.838;2.322;2022-09-09T01:20:28;5.37;;;2.53;;
819;SDS011;392;48.838;2.322;2022-09-09T01:23:09;3.63;;;2.23;;
819;SDS011;392;48.838;2.322;2022-09-09T01:26:19;2.73;;;2.30;;
819;SDS011;392;48.838;2.322;2022-09-09T01:28:54;2.50;;;2.30;;
819;SDS011;392;48.838;2.322;2022-09-09T01:31:31;2.93;;;2.20;;
819;SDS011;392;48.838;2.322;2022-09-09T01:34:08;2.80;;;2.40;;
819;SDS011;392;48.838;2.322;2022-09-09T01:36:40;4.47;;;2.57;;
819;SDS011;392;48.838;2.322;2022-09-09T01:39:12;4.13;;;2.30;;
819;SDS011;392;48.838;2.322;2022-09-09T01:41:43;3.00;;;2.00;;
819;SDS011;392;48.838;2.322;2022-09-09T01:44:12;5.03;;;1.80;;
819;SDS011;392;48.838;2.322;2022-09-09T01:46:44;4.30;;;2.63;;
819;SDS011;392;48.838;2.322;2022-09-09T01:49:15;3.13;;;2.40;;
819;SDS011;392;48.838;2.322;2022-09-09T01:51:45;4.67;;;2.13;;
819;SDS011;392;48.838;2.322;2022-09-09T01:54:17;2.67;;;2.17;;
819;SDS011;392;48.838;2.322;2022-09-09T01:56:50;3.57;;;2.50;;
819;SDS011;392;48.838;2.322;2022-09-09T02:02:30;3.40;;;2.53;;
819;SDS011;392;48.838;2.322;2022-09-09T02:05:12;5.53;;;2.20;;
819;SDS011;392;48.838;2.322;2022-09-09T02:07:52;7.13;;;2.53;;
819;SDS011;392;48.838;2.322;2022-09-09T02:10:37;3.53;;;2.27;;
819;SDS011;392;48.838;2.322;2022-09-09T02:13:28;3.30;;;2.20;;
819;SDS011;392;48.838;2.322;2022-09-09T02:16:00;2.90;;;2.10;;
819;SDS011;392;48.838;2.322;2022-09-09T02:18:35;2.70;;;2.50;;
819;SDS011;392;48.838;2.322;2022-09-09T02:21:10;2.77;;;2.53;;
819;SDS011;392;48.838;2.322;2022-09-09T02:23:39;3.80;;;1.90;;
819;SDS011;392;48.838;2.322;2022-09-09T02:26:12;3.10;;;2.17;;
819;SDS011;392;48.838;2.322;2022-09-09T02:28:49;2.83;;;2.53;;
819;SDS011;392;48.838;2.322;2022-09-09T02:31:18;3.63;;;2.10;;
819;SDS011;392;48.838;2.322;2022-09-09T02:33:53;5.70;;;2.43;;
819;SDS011;392;48.838;2.322;2022-09-09T02:36:25;2.50;;;2.10;;
819;SDS011;392;48.838;2.322;2022-09-09T02:38:58;3.30;;;2.60;;
819;SDS011;392;48.838;2.322;2022-09-09T02:41:31;3.40;;;2.20;;
819;SDS011;392;48.838;2.322;2022-09-09T02:44:05;4.10;;;2.40;;
819;SDS011;392;48.838;2.322;2022-09-09T02:46:41;4.23;;;2.30;;
819;SDS011;392;48.838;2.322;2022-09-09T02:49:25;3.50;;;2.60;;
819;SDS011;392;48.838;2.322;2022-09-09T02:52:00;3.53;;;2.30;;
819;SDS011;392;48.838;2.322;2022-09-09T02:54:33;3.10;;;2.13;;
819;SDS011;392;48.838;2.322;2022-09-09T02:57:10;3.83;;;2.40;;
819;SDS011;392;48.838;2.322;2022-09-09T02:59:44;3.23;;;2.20;;
819;SDS011;392;48.838;2.322;2022-09-09T03:02:13;2.73;;;2.47;;
819;SDS011;392;48.838;2.322;2022-09-09T03:04:44;2.80;;;2.47;;
819;SDS011;392;48.838;2.322;2022-09-09T03:07:16;3.90;;;2.77;;
819;SDS011;392;48.838;2.322;2022-09-09T03:09:44;4.90;;;2.50;;
819;SDS011;392;48.838;2.322;2022-09-09T03:12:12;3.13;;;2.50;;
819;SDS011;392;48.838;2.322;2022-09-09T03:14:39;3.83;;;2.37;;
819;SDS011;392;48.838;2.322;2022-09-09T03:17:11;5.80;;;2.37;;
819;SDS011;392;48.838;2.322;2022-09-09T03:19:46;3.13;;;2.40;;
819;SDS011;392;48.838;2.322;2022-09-09T03:22:15;3.83;;;2.53;;
819;SDS011;392;48.838;2.322;2022-09-09T03:24:43;2.93;;;2.50;;
819;SDS011;392;48.838;2.322;2022-09-09T03:27:12;4.17;;;2.77;;
819;SDS011;392;48.838;2.322;2022-09-09T03:29:40;3.47;;;2.70;;
819;SDS011;392;48.838;2.322;2022-09-09T03:32:13;3.53;;;2.70;;
819;SDS011;392;48.838;2.322;2022-09-09T03:34:43;2.17;;;2.00;;
819;SDS011;392;48.838;2.322;2022-09-09T03:37:13;2.50;;;2.30;;
819;SDS011;392;48.838;2.322;2022-09-09T03:39:41;4.27;;;2.23;;
819;SDS011;392;48.838;2.322;2022-09-09T03:42:09;3.47;;;2.20;;
819;SDS011;392;48.838;2.322;2022-09-09T03:44:40;3.00;;;2.17;;
819;SDS011;392;48.838;2.322;2022-09-09T03:47:09;3.70;;;2.47;;
819;SDS011;392;48.838;2.322;2022-09-09T03:49:38;3.73;;;2.50;;
819;SDS011;392;48.838;2.322;2022-09-09T03:52:06;2.97;;;2.60;;
819;SDS011;392;48.838;2.322;2022-09-09T03:54:35;3.20;;;2.53;;
819;SDS011;392;48.838;2.322;2022-09-09T03:57:04;2.17;;;1.97;;
819;SDS011;392;48.838;2.322;2022-09-09T03:59:32;2.70;;;2.27;;
819;SDS011;392;48.838;2.322;2022-09-09T04:02:00;3.00;;;2.20;;
819;SDS011;392;48.838;2.322;2022-09-09T04:04:28;2.83;;;2.50;;
819;SDS011;392;48.838;2.322;2022-09-09T04:06:57;4.53;;;2.50;;
819;SDS011;392;48.838;2.322;2022-09-09T04:09:25;4.97;;;2.87;;
819;SDS011;392;48.838;2.322;2022-09-09T04:11:53;3.37;;;2.33;;
819;SDS011;392;48.838;2.322;2022-09-09T04:14:21;6.03;;;2.87;;
819;SDS011;392;48.838;2.322;2022-09-09T04:16:48;5.50;;;2.63;;
819;SDS011;392;48.838;2.322;2022-09-09T04:19:16;3.20;;;2.30;;
819;SDS011;392;48.838;2.322;2022-09-09T04:21:45;5.30;;;2.80;;
819;SDS011;392;48.838;2.322;2022-09-09T04:24:19;2.87;;;2.47;;
819;SDS011;392;48.838;2.322;2022-09-09T04:26:48;3.60;;;2.33;;
819;SDS011;392;48.838;2.322;2022-09-09T04:29:16;3.80;;;2.67;;
819;SDS011;392;48.838;2.322;2022-09-09T04:31:44;3.60;;;2.57;;
819;SDS011;392;48.838;2.322;2022-09-09T04:34:12;4.00;;;3.10;;
819;SDS011;392;48.838;2.322;2022-09-09T04:36:40;3.20;;;2.37;;
819;SDS011;392;48.838;2.322;2022-09-09T04:39:08;3.57;;;2.80;;
819;SDS011;392;48.838;2.322;2022-09-09T04:41:37;3.53;;;2.20;;
819;SDS011;392;48.838;2.322;2022-09-09T04:44:05;3.00;;;2.67;;
819;SDS011;392;48.838;2.322;2022-09-09T04:46:32;3.67;;;2.43;;
819;SDS011;392;48.838;2.322;2022-09-09T04:49:00;4.60;;;2.70;;
819;SDS011;392;48.838;2.322;2022-09-09T04:51:30;4.20;;;3.03;;
819;SDS011;392;48.838;2.322;2022-09-09T04:53:58;2.50;;;2.30;;
819;SDS011;392;48.838;2.322;2022-09-09T04:56:25;2.40;;;2.20;;
819;SDS011;392;48.838;2.322;2022-09-09T04:58:57;6.63;;;2.80;;
819;SDS011;392;48.838;2.322;2022-09-09T05:01:35;6.23;;;2.60;;
819;SDS011;392;48.838;2.322;2022-09-09T05:04:04;5.97;;;2.60;;
819;SDS011;392;48.838;2.322;2022-09-09T05:06:33;3.30;;;2.90;;
819;SDS011;392;48.838;2.322;2022-09-09T05:09:02;4.30;;;2.63;;
819;SDS011;392;48.838;2.322;2022-09-09T05:11:30;4.60;;;2.93;;
819;SDS011;392;48.838;2.322;2022-09-09T05:14:26;3.77;;;2.77;;
819;SDS011;392;48.838;2.322;2022-09-09T05:16:54;3.60;;;2.67;;
819;SDS011;392;48.838;2.322;2022-09-09T05:19:23;5.97;;;2.93;;
819;SDS011;392;48.838;2.322;2022-09-09T05:21:52;5.73;;;3.00;;
819;SDS011;392;48.838;2.322;2022-09-09T05:24:26;4.60;;;2.83;;
819;SDS011;392;48.838;2.322;2022-09-09T05:26:56;4.17;;;3.03;;
819;SDS011;392;48.838;2.322;2022-09-09T05:29:26;3.40;;;2.63;;
819;SDS011;392;48.838;2.322;2022-09-09T05:31:55;7.43;;;3.10;;
819;SDS011;392;48.838;2.322;2022-09-09T05:34:23;6.97;;;3.00;;
819;SDS011;392;48.838;2.322;2022-09-09T05:36:52;6.33;;;3.70;;
819;SDS011;392;48.838;2.322;2022-09-09T05:39:21;4.10;;;2.60;;
819;SDS011;392;48.838;2.322;2022-09-09T05:41:48;5.60;;;3.00;;
819;SDS011;392;48.838;2.322;2022-09-09T05:44:16;2.77;;;2.40;;
819;SDS011;392;48.838;2.322;2022-09-09T05:46:46;4.37;;;2.87;;
819;SDS011;392;48.838;2.322;2022-09-09T05:49:15;4.73;;;2.90;;
819;SDS011;392;48.838;2.322;2022-09-09T05:51:43;14.23;;;5.60;;
819;SDS011;392;48.838;2.322;2022-09-09T05:54:13;11.67;;;4.30;;
819;SDS011;392;48.838;2.322;2022-09-09T05:56:44;7.43;;;3.93;;
819;SDS011;392;48.838;2.322;2022-09-09T05:59:12;4.97;;;3.23;;
819;SDS011;392;48.838;2.322;2022-09-09T06:01:40;3.90;;;2.97;;
819;SDS011;392;48.838;2.322;2022-09-09T06:04:16;4.63;;;3.13;;
819;SDS011;392;48.838;2.322;2022-09-09T06:06:47;3.30;;;2.80;;
819;SDS011;392;48.838;2.322;2022-09-09T06:09:17;4.80;;;3.60;;
819;SDS011;392;48.838;2.322;2022-09-09T06:11:44;6.50;;;3.57;;
819;SDS011;392;48.838;2.322;2022-09-09T06:14:14;4.20;;;3.20;;
819;SDS011;392;48.838;2.322;2022-09-09T06:16:45;6.10;;;3.77;;
819;SDS011;392;48.838;2.322;2022-09-09T06:19:21;5.43;;;2.90;;
819;SDS011;392;48.838;2.322;2022-09-09T06:21:54;5.13;;;2.43;;
819;SDS011;392;48.838;2.322;2022-09-09T06:24:21;4.90;;;2.80;;
819;SDS011;392;48.838;2.322;2022-09-09T06:26:49;4.07;;;2.70;;
819;SDS011;392;48.838;2.322;2022-09-09T06:29:27;3.37;;;2.40;;
819;SDS011;392;48.838;2.322;2022-09-09T06:31:54;3.67;;;2.60;;
819;SDS011;392;48.838;2.322;2022-09-09T06:34:27;3.97;;;2.93;;
819;SDS011;392;48.838;2.322;2022-09-09T06:36:56;4.60;;;3.13;;
819;SDS011;392;48.838;2.322;2022-09-09T06:39:28;5.77;;;3.13;;
819;SDS011;392;48.838;2.322;2022-09-09T06:41:55;3.50;;;2.70;;
819;SDS011;392;48.838;2.322;2022-09-09T06:44:53;5.10;;;2.50;;
819;SDS011;392;48.838;2.322;2022-09-09T06:47:32;4.40;;;3.20;;
819;SDS011;392;48.838;2.322;2022-09-09T06:50:02;5.33;;;2.97;;
819;SDS011;392;48.838;2.322;2022-09-09T06:52:33;4.33;;;3.10;;
819;SDS011;392;48.838;2.322;2022-09-09T06:55:01;7.03;;;3.47;;
819;SDS011;392;48.838;2.322;2022-09-09T06:57:30;3.90;;;3.47;;
819;SDS011;392;48.838;2.322;2022-09-09T06:59:57;5.20;;;3.03;;
819;SDS011;392;48.838;2.322;2022-09-09T07:02:25;3.07;;;2.77;;
819;SDS011;392;48.838;2.322;2022-09-09T07:04:53;6.00;;;3.90;;
819;SDS011;392;48.838;2.322;2022-09-09T07:07:24;3.13;;;2.60;;
819;SDS011;392;48.838;2.322;2022-09-09T07:09:52;4.17;;;3.50;;
819;SDS011;392;48.838;2.322;2022-09-09T07:12:20;5.17;;;3.23;;
819;SDS011;392;48.838;2.322;2022-09-09T07:14:55;4.60;;;3.17;;
819;SDS011;392;48.838;2.322;2022-09-09T07:17:23;5.10;;;2.73;;
819;SDS011;392;48.838;2.322;2022-09-09T07:19:51;5.10;;;3.60;;
819;SDS011;392;48.838;2.322;2022-09-09T07:22:18;5.23;;;3.07;;
819;SDS011;392;48.838;2.322;2022-09-09T07:24:49;4.73;;;2.97;;
819;SDS011;392;48.838;2.322;2022-09-09T07:27:18;2.87;;;2.50;;
819;SDS011;392;48.838;2.322;2022-09-09T07:29:47;3.27;;;2.30;;
819;SDS011;392;48.838;2.322;2022-09-09T07:32:15;4.83;;;2.70;;
819;SDS011;392;48.838;2.322;2022-09-09T07:34:43;5.30;;;3.40;;
819;SDS011;392;48.838;2.322;2022-09-09T07:37:11;4.27;;;2.73;;
819;SDS011;392;48.838;2.322;2022-09-09T07:39:43;3.13;;;2.30;;
819;SDS011;392;48.838;2.322;2022-09-09T07:42:13;4.53;;;2.90;;
819;SDS011;392;48.838;2.322;2022-09-09T07:44:41;5.00;;;2.60;;
819;SDS011;392;48.838;2.322;2022-09-09T07:47:12;4.00;;;2.70;;
819;SDS011;392;48.838;2.322;2022-09-09T07:49:44;2.83;;;2.10;;
819;SDS011;392;48.838;2.322;2022-09-09T07:52:15;4.43;;;2.73;;
819;SDS011;392;48.838;2.322;2022-09-09T07:54:45;3.40;;;2.33;;
819;SDS011;392;48.838;2.322;2022-09-09T07:57:15;2.87;;;2.60;;
819;SDS011;392;48.838;2.322;2022-09-09T07:59:44;3.67;;;2.63;;
819;SDS011;392;48.838;2.322;2022-09-09T08:02:12;3.03;;;2.73;;
819;SDS011;392;48.838;2.322;2022-09-09T08:04:40;5.10;;;2.50;;
819;SDS011;392;48.838;2.322;2022-09-09T08:07:09;3.23;;;2.50;;
819;SDS011;392;48.838;2.322;2022-09-09T08:09:50;2.80;;;2.60;;
819;SDS011;392;48.838;2.322;2022-09-09T08:12:28;2.40;;;2.20;;
819;SDS011;392;48.838;2.322;2022-09-09T08:14:56;4.57;;;2.50;;
819;SDS011;392;48.838;2.322;2022-09-09T08:17:29;7.17;;;2.63;;
819;SDS011;392;48.838;2.322;2022-09-09T08:20:00;4.67;;;2.93;;
819;SDS011;392;48.838;2.322;2022-09-09T08:22:31;5.43;;;3.40;;
819;SDS011;392;48.838;2.322;2022-09-09T08:24:59;5.33;;;3.00;;
819;SDS011;392;48.838;2.322;2022-09-09T08:27:29;3.23;;;2.87;;
819;SDS011;392;48.838;2.322;2022-09-09T08:29:57;4.83;;;2.77;;
819;SDS011;392;48.838;2.322;2022-09-09T08:32:26;3.47;;;2.43;;
819;SDS011;392;48.838;2.322;2022-09-09T08:34:54;2.77;;;2.50;;
819;SDS011;392;48.838;2.322;2022-09-09T08:37:23;6.60;;;2.83;;
819;SDS011;392;48.838;2.322;2022-09-09T08:39:50;4.20;;;3.00;;
819;SDS011;392;48.838;2.322;2022-09-09T08:45:28;4.97;;;2.80;;
819;SDS011;392;48.838;2.322;2022-09-09T08:48:05;4.23;;;2.60;;
819;SDS011;392;48.838;2.322;2022-09-09T08:50:55;4.40;;;2.63;;
819;SDS011;392;48.838;2.322;2022-09-09T08:53:28;2.77;;;2.40;;
819;SDS011;392;48.838;2.322;2022-09-09T08:56:11;5.83;;;2.50;;
819;SDS011;392;48.838;2.322;2022-09-09T08:58:48;2.93;;;2.70;;
819;SDS011;392;48.838;2.322;2022-09-09T09:01:44;4.23;;;2.57;;
819;SDS011;392;48.838;2.322;2022-09-09T09:04:44;2.90;;;2.10;;
819;SDS011;392;48.838;2.322;2022-09-09T09:07:30;3.47;;;2.60;;
819;SDS011;392;48.838;2.322;2022-09-09T09:10:13;3.00;;;2.70;;
819;SDS011;392;48.838;2.322;2022-09-09T09:12:55;3.80;;;2.73;;
819;SDS011;392;48.838;2.322;2022-09-09T09:15:30;2.50;;;2.40;;
819;SDS011;392;48.838;2.322;2022-09-09T09:18:04;3.37;;;2.27;;
819;SDS011;392;48.838;2.322;2022-09-09T09:20:43;4.80;;;2.30;;
819;SDS011;392;48.838;2.322;2022-09-09T09:23:22;3.93;;;2.50;;
819;SDS011;392;48.838;2.322;2022-09-09T09:25:58;5.03;;;2.53;;
819;SDS011;392;48.838;2.322;2022-09-09T09:28:29;3.50;;;2.37;;
819;SDS011;392;48.838;2.322;2022-09-09T09:31:08;8.40;;;2.40;;
819;SDS011;392;48.838;2.322;2022-09-09T09:33:43;4.00;;;2.83;;
819;SDS011;392;48.838;2.322;2022-09-09T09:36:17;5.43;;;3.07;;
819;SDS011;392;48.838;2.322;2022-09-09T09:38:54;3.13;;;2.83;;
819;SDS011;392;48.838;2.322;2022-09-09T09:41:29;3.47;;;2.37;;
819;SDS011;392;48.838;2.322;2022-09-09T09:44:03;4.27;;;2.60;;
819;SDS011;392;48.838;2.322;2022-09-09T09:46:34;6.33;;;5.70;;
819;SDS011;392;48.838;2.322;2022-09-09T09:49:09;4.00;;;2.77;;
819;SDS011;392;48.838;2.322;2022-09-09T09:51:40;5.93;;;2.70;;
819;SDS011;392;48.838;2.322;2022-09-09T09:54:09;5.50;;;3.50;;
819;SDS011;392;48.838;2.322;2022-09-09T09:56:51;5.53;;;2.83;;
819;SDS011;392;48.838;2.322;2022-09-09T09:59:20;3.40;;;3.10;;
819;SDS011;392;48.838;2.322;2022-09-09T10:01:51;4.90;;;4.43;;
819;SDS011;392;48.838;2.322;2022-09-09T10:04:19;9.77;;;8.97;;
819;SDS011;392;48.838;2.322;2022-09-09T10:06:52;7.00;;;6.30;;
819;SDS011;392;48.838;2.322;2022-09-09T10:09:23;13.97;;;12.73;;
819;SDS011;392;48.838;2.322;2022-09-09T10:11:55;13.10;;;12.00;;
819;SDS011;392;48.838;2.322;2022-09-09T10:14:32;6.67;;;5.30;;
819;SDS011;392;48.838;2.322;2022-09-09T10:17:12;7.63;;;6.93;;
819;SDS011;392;48.838;2.322;2022-09-09T10:19:54;11.53;;;7.43;;
819;SDS011;392;48.838;2.322;2022-09-09T10:22:37;4.80;;;4.20;;
819;SDS011;392;48.838;2.322;2022-09-09T10:25:22;5.67;;;4.40;;
819;SDS011;392;48.838;2.322;2022-09-09T10:28:17;5.20;;;3.63;;
819;SDS011;392;48.838;2.322;2022-09-09T10:31:16;5.20;;;2.87;;
819;SDS011;392;48.838;2.322;2022-09-09T10:33:59;2.63;;;2.43;;
819;SDS011;392;48.838;2.322;2022-09-09T10:36:39;4.60;;;2.60;;
819;SDS011;392;48.838;2.322;2022-09-09T10:39:16;4.47;;;2.70;;
819;SDS011;392;48.838;2.322;2022-09-09T10:42:00;2.97;;;2.70;;
819;SDS011;392;48.838;2.322;2022-09-09T10:44:40;2.80;;;2.60;;
819;SDS011;392;48.838;2.322;2022-09-09T10:47:36;3.67;;;2.93;;
819;SDS011;392;48.838;2.322;2022-09-09T10:50:29;4.97;;;3.03;;
819;SDS011;392;48.838;2.322;2022-09-09T10:53:19;3.20;;;3.00;;
819;SDS011;392;48.838;2.322;2022-09-09T10:55:59;2.30;;;2.17;;
819;SDS011;392;48.838;2.322;2022-09-09T10:58:35;3.60;;;3.30;;
819;SDS011;392;48.838;2.322;2022-09-09T11:01:10;4.57;;;3.20;;
819;SDS011;392;48.838;2.322;2022-09-09T11:03:43;3.37;;;3.10;;
819;SDS011;392;48.838;2.322;2022-09-09T11:06:22;3.30;;;2.47;;
819;SDS011;392;48.838;2.322;2022-09-09T11:08:58;3.20;;;2.90;;
819;SDS011;392;48.838;2.322;2022-09-09T11:11:32;2.33;;;2.10;;
819;SDS011;392;48.838;2.322;2022-09-09T11:14:05;3.67;;;2.73;;
819;SDS011;392;48.838;2.322;2022-09-09T11:16:42;5.10;;;2.93;;
819;SDS011;392;48.838;2.322;2022-09-09T11:19:19;4.20;;;2.73;;
819;SDS011;392;48.838;2.322;2022-09-09T11:21:53;5.07;;;4.00;;
819;SDS011;392;48.838;2.322;2022-09-09T11:24:23;2.77;;;2.57;;
819;SDS011;392;48.838;2.322;2022-09-09T11:26:55;3.67;;;2.53;;
819;SDS011;392;48.838;2.322;2022-09-09T11:33:03;6.20;;;3.43;;
819;SDS011;392;48.838;2.322;2022-09-09T11:36:03;2.93;;;2.33;;
819;SDS011;392;48.838;2.322;2022-09-09T11:38:52;3.77;;;2.50;;
819;SDS011;392;48.838;2.322;2022-09-09T11:41:23;2.70;;;2.50;;
819;SDS011;392;48.838;2.322;2022-09-09T11:44:08;3.30;;;2.97;;
819;SDS011;392;48.838;2.322;2022-09-09T11:46:38;3.70;;;3.40;;
819;SDS011;392;48.838;2.322;2022-09-09T11:49:23;3.27;;;2.97;;
819;SDS011;392;48.838;2.322;2022-09-09T11:51:54;4.23;;;3.47;;
819;SDS011;392;48.838;2.322;2022-09-09T11:54:27;3.50;;;3.20;;
819;SDS011;392;48.838;2.322;2022-09-09T11:56:57;3.00;;;2.80;;
819;SDS011;392;48.838;2.322;2022-09-09T11:59:26;4.00;;;3.60;;
819;SDS011;392;48.838;2.322;2022-09-09T12:01:55;6.20;;;4.17;;
819;SDS011;392;48.838;2.322;2022-09-09T12:04:30;3.20;;;2.90;;
819;SDS011;392;48.838;2.322;2022-09-09T12:07:03;3.37;;;2.57;;
819;SDS011;392;48.838;2.322;2022-09-09T12:09:52;3.27;;;2.27;;
819;SDS011;392;48.838;2.322;2022-09-09T12:12:27;5.97;;;2.70;;
819;SDS011;392;48.838;2.322;2022-09-09T12:14:59;3.10;;;2.80;;
819;SDS011;392;48.838;2.322;2022-09-09T12:17:46;3.20;;;2.73;;
819;SDS011;392;48.838;2.322;2022-09-09T12:20:18;2.87;;;2.67;;
819;SDS011;392;48.838;2.322;2022-09-09T12:22:51;2.80;;;2.60;;
819;SDS011;392;48.838;2.322;2022-09-09T12:26:02;3.83;;;3.10;;
819;SDS011;392;48.838;2.322;2022-09-09T12:28:52;3.13;;;2.83;;
819;SDS011;392;48.838;2.322;2022-09-09T12:31:30;5.57;;;3.80;;
819;SDS011;392;48.838;2.322;2022-09-09T12:34:09;4.83;;;4.37;;
819;SDS011;392;48.838;2.322;2022-09-09T12:36:40;3.93;;;3.60;;
819;SDS011;392;48.838;2.322;2022-09-09T12:39:14;3.10;;;2.90;;
819;SDS011;392;48.838;2.322;2022-09-09T12:41:55;3.43;;;3.13;;
819;SDS011;392;48.838;2.322;2022-09-09T12:44:23;3.27;;;2.97;;
819;SDS011;392;48.838;2.322;2022-09-09T12:46:53;4.30;;;2.70;;
819;SDS011;392;48.838;2.322;2022-09-09T12:49:24;3.43;;;2.50;;
819;SDS011;392;48.838;2.322;2022-09-09T12:52:00;3.20;;;2.80;;
819;SDS011;392;48.838;2.322;2022-09-09T12:54:32;6.63;;;2.90;;
819;SDS011;392;48.838;2.322;2022-09-09T12:57:03;5.20;;;3.00;;
819;SDS011;392;48.838;2.322;2022-09-09T12:59:36;4.10;;;3.00;;
819;SDS011;392;48.838;2.322;2022-09-09T13:02:16;3.67;;;2.33;;
819;SDS011;392;48.838;2.322;2022-09-09T13:04:47;5.17;;;2.90;;
819;SDS011;392;48.838;2.322;2022-09-09T13:07:16;2.87;;;2.67;;
819;SDS011;392;48.838;2.322;2022-09-09T13:09:45;5.37;;;3.20;;
819;SDS011;392;48.838;2.322;2022-09-09T13:12:16;3.80;;;3.03;;
819;SDS011;392;48.838;2.322;2022-09-09T13:14:48;2.93;;;2.60;;
819;SDS011;392;48.838;2.322;2022-09-09T13:17:19;4.63;;;3.93;;
819;SDS011;392;48.838;2.322;2022-09-09T13:19:49;4.30;;;3.20;;
819;SDS011;392;48.838;2.322;2022-09-09T13:22:29;4.17;;;3.00;;
819;SDS011;392;48.838;2.322;2022-09-09T13:25:02;4.77;;;3.40;;
819;SDS011;392;48.838;2.322;2022-09-09T13:27:34;3.03;;;2.73;;
819;SDS011;392;48.838;2.322;2022-09-09T13:30:19;5.27;;;2.83;;
819;SDS011;392;48.838;2.322;2022-09-09T13:32:59;2.70;;;2.40;;
819;SDS011;392;48.838;2.322;2022-09-09T13:35:45;2.40;;;2.10;;
819;SDS011;392;48.838;2.322;2022-09-09T13:38:15;2.97;;;2.03;;
819;SDS011;392;48.838;2.322;2022-09-09T13:40:51;2.00;;;1.90;;
819;SDS011;392;48.838;2.322;2022-09-09T13:43:24;2.70;;;2.50;;
819;SDS011;392;48.838;2.322;2022-09-09T13:45:56;2.43;;;2.10;;
819;SDS011;392;48.838;2.322;2022-09-09T13:48:26;3.23;;;2.70;;
819;SDS011;392;48.838;2.322;2022-09-09T13:50:56;3.13;;;2.37;;
819;SDS011;392;48.838;2.322;2022-09-09T13:53:26;3.27;;;2.70;;
819;SDS011;392;48.838;2.322;2022-09-09T13:55:55;5.23;;;3.40;;
819;SDS011;392;48.838;2.322;2022-09-09T13:58:24;3.07;;;2.77;;
819;SDS011;392;48.838;2.322;2022-09-09T14:00:52;5.57;;;2.80;;
819;SDS011;392;48.838;2.322;2022-09-09T14:03:20;4.20;;;3.10;;
819;SDS011;392;48.838;2.322;2022-09-09T14:05:48;3.03;;;2.70;;
819;SDS011;392;48.838;2.322;2022-09-09T14:08:20;4.20;;;2.40;;
819;SDS011;392;48.838;2.322;2022-09-09T14:10:51;3.07;;;2.67;;
819;SDS011;392;48.838;2.322;2022-09-09T14:13:22;3.80;;;2.90;;
819;SDS011;392;48.838;2.322;2022-09-09T14:15:51;5.10;;;3.20;;
819;SDS011;392;48.838;2.322;2022-09-09T14:18:18;5.57;;;3.70;;
819;SDS011;392;48.838;2.322;2022-09-09T14:20:47;4.27;;;3.27;;
819;SDS011;392;48.838;2.322;2022-09-09T14:23:15;3.77;;;3.47;;
819;SDS011;392;48.838;2.322;2022-09-09T14:25:44;4.37;;;3.30;;
819;SDS011;392;48.838;2.322;2022-09-09T14:28:12;3.00;;;2.80;;
819;SDS011;392;48.838;2.322;2022-09-09T14:30:42;3.03;;;2.67;;
819;SDS011;392;48.838;2.322;2022-09-09T14:33:11;3.50;;;3.20;;
819;SDS011;392;48.838;2.322;2022-09-09T14:35:41;3.57;;;3.27;;
819;SDS011;392;48.838;2.322;2022-09-09T14:38:09;2.97;;;2.77;;
819;SDS011;392;48.838;2.322;2022-09-09T14:40:37;4.00;;;3.60;;
819;SDS011;392;48.838;2.322;2022-09-09T14:43:05;3.57;;;2.93;;
819;SDS011;392;48.838;2.322;2022-09-09T14:45:32;3.27;;;2.97;;
819;SDS011;392;48.838;2.322;2022-09-09T14:48:04;4.00;;;3.10;;
819;SDS011;392;48.838;2.322;2022-09-09T14:50:31;3.93;;;3.00;;
819;SDS011;392;48.838;2.322;2022-09-09T14:53:00;3.03;;;2.53;;
819;SDS011;392;48.838;2.322;2022-09-09T14:55:27;4.07;;;3.67;;
819;SDS011;392;48.838;2.322;2022-09-09T14:57:54;4.40;;;4.00;;
819;SDS011;392;48.838;2.322;2022-09-09T15:00:22;3.00;;;2.70;;
819;SDS011;392;48.838;2.322;2022-09-09T15:02:51;5.47;;;3.00;;
819;SDS011;392;48.838;2.322;2022-09-09T15:05:21;3.13;;;2.90;;
819;SDS011;392;48.838;2.322;2022-09-09T15:07:49;3.33;;;3.07;;
819;SDS011;392;48.838;2.322;2022-09-09T15:10:17;3.53;;;3.23;;
819;SDS011;392;48.838;2.322;2022-09-09T15:12:44;3.23;;;2.50;;
819;SDS011;392;48.838;2.322;2022-09-09T15:15:12;3.73;;;3.10;;
819;SDS011;392;48.838;2.322;2022-09-09T15:17:39;3.53;;;2.50;;
819;SDS011;392;48.838;2.322;2022-09-09T15:20:07;2.93;;;2.73;;
819;SDS011;392;48.838;2.322;2022-09-09T15:22:37;3.13;;;2.40;;
819;SDS011;392;48.838;2.322;2022-09-09T15:25:05;2.30;;;2.20;;
819;SDS011;392;48.838;2.322;2022-09-09T15:27:33;3.00;;;2.40;;
819;SDS011;392;48.838;2.322;2022-09-09T15:30:01;3.17;;;2.90;;
819;SDS011;392;48.838;2.322;2022-09-09T15:32:29;3.70;;;2.43;;
819;SDS011;392;48.838;2.322;2022-09-09T15:34:58;3.23;;;2.93;;
819;SDS011;392;48.838;2.322;2022-09-09T15:37:29;3.30;;;3.00;;
819;SDS011;392;48.838;2.322;2022-09-09T15:39:58;3.10;;;2.90;;
819;SDS011;392;48.838;2.322;2022-09-09T15:42:26;2.93;;;2.63;;
819;SDS011;392;48.838;2.322;2022-09-09T15:44:55;2.80;;;2.60;;
819;SDS011;392;48.838;2.322;2022-09-09T15:47:22;4.10;;;3.70;;
819;SDS011;392;48.838;2.322;2022-09-09T15:49:49;3.57;;;3.37;;
819;SDS011;392;48.838;2.322;2022-09-09T15:52:17;4.50;;;4.10;;
819;SDS011;392;48.838;2.322;2022-09-09T15:54:44;5.17;;;4.20;;
819;SDS011;392;48.838;2.322;2022-09-09T15:57:13;5.80;;;5.30;;
819;SDS011;392;48.838;2.322;2022-09-09T15:59:40;2.93;;;2.67;;
819;SDS011;392;48.838;2.322;2022-09-09T16:02:08;2.97;;;2.73;;
819;SDS011;392;48.838;2.322;2022-09-09T16:04:36;4.47;;;4.07;;
819;SDS011;392;48.838;2.322;2022-09-09T16:07:04;3.40;;;3.10;;
819;SDS011;392;48.838;2.322;2022-09-09T16:09:31;5.40;;;2.60;;
819;SDS011;392;48.838;2.322;2022-09-09T16:12:01;6.23;;;3.80;;
819;SDS011;392;48.838;2.322;2022-09-09T16:14:33;3.63;;;3.30;;
819;SDS011;392;48.838;2.322;2022-09-09T16:17:01;3.07;;;2.60;;
819;SDS011;392;48.838;2.322;2022-09-09T16:19:29;6.73;;;6.00;;
819;SDS011;392;48.838;2.322;2022-09-09T16:21:56;3.93;;;3.07;;
819;SDS011;392;48.838;2.322;2022-09-09T16:24:23;2.37;;;2.20;;
819;SDS011;392;48.838;2.322;2022-09-09T16:26:51;5.73;;;3.43;;
819;SDS011;392;48.838;2.322;2022-09-09T16:29:21;4.40;;;4.00;;
819;SDS011;392;48.838;2.322;2022-09-09T16:31:52;3.60;;;3.30;;